Time;durP1;ratioP1;P1;durP2;ratioP2;P2;SDS_P1;SDS_P2;PMS_P1;PMS_P2;Temp;Humidity;BMP_temperature;BMP_pressure;BME280_temperature;BME280_humidity;BME280_pressure;Samples;Min_cycle;Max_cycle;Signal;HPM_P1;HPM_P2
2023/09/01 00:02:15;;;;;;;2.25;0.98;;;;;;;22.94;94.67;100102.97;5043034;28;20196;-68
2023/09/01 00:04:42;;;;;;;0.82;0.80;;;;;;;22.92;95.44;100102.16;5052613;28;20652;-70
2023/09/01 00:07:08;;;;;;;1.63;0.90;;;;;;;22.90;96.46;100106.63;5017335;28;20203;-68
2023/09/01 00:09:37;;;;;;;0.80;0.80;;;;;;;22.96;96.83;100098.50;5052770;28;20208;-68
2023/09/01 00:12:04;;;;;;;1.67;0.98;;;;;;;22.92;96.66;100104.81;5052656;28;20286;-69
2023/09/01 00:14:31;;;;;;;1.00;1.00;;;;;;;22.79;97.43;100105.31;5017503;28;20196;-68
2023/09/01 00:16:58;;;;;;;2.15;1.02;;;;;;;22.86;97.47;100107.69;5017449;28;20199;-68
2023/09/01 00:19:24;;;;;;;0.80;0.80;;;;;;;22.73;97.50;100101.06;5052295;28;20235;-68
2023/09/01 00:21:51;;;;;;;2.97;1.10;;;;;;;22.82;97.76;100111.34;5052337;28;20203;-69
2023/09/01 00:24:18;;;;;;;1.60;0.90;;;;;;;22.72;98.76;100115.22;5052016;28;20200;-69
2023/09/01 00:26:46;;;;;;;2.25;1.00;;;;;;;22.68;99.49;100103.03;5052605;28;20211;-69
2023/09/01 00:29:13;;;;;;;0.70;0.70;;;;;;;22.50;100.00;100085.09;5052356;28;20203;-69
2023/09/01 00:31:39;;;;;;;1.65;0.82;;;;;;;22.61;100.00;100128.78;5052041;28;20718;-68
2023/09/01 00:34:06;;;;;;;1.40;1.30;;;;;;;22.61;100.00;100127.91;5051923;28;20706;-68
2023/09/01 00:36:33;;;;;;;0.70;0.70;;;;;;;22.47;100.00;100119.56;5052358;28;20222;-67
2023/09/01 00:39:00;;;;;;;2.05;0.88;;;;;;;22.51;100.00;100123.84;5051773;28;20214;-68
2023/09/01 00:41:27;;;;;;;1.08;0.98;;;;;;;22.47;100.00;100119.56;5052077;28;20698;-68
2023/09/01 00:43:55;;;;;;;1.58;0.90;;;;;;;22.45;100.00;100118.75;5033326;28;20675;-68
2023/09/01 00:46:22;;;;;;;0.80;0.70;;;;;;;22.41;100.00;100104.75;5051966;28;20200;-68
2023/09/01 00:48:48;;;;;;;1.38;1.20;;;;;;;22.16;100.00;100078.28;5052008;28;20210;-68
2023/09/01 00:51:15;;;;;;;0.88;0.60;;;;;;;22.45;100.00;100127.53;5033194;28;20651;-68
2023/09/01 00:53:42;;;;;;;2.03;1.60;;;;;;;22.40;100.00;100133.91;5052211;28;20227;-68
2023/09/01 00:56:10;;;;;;;1.23;0.80;;;;;;;22.44;100.00;100131.09;5051822;28;20208;-69
2023/09/01 00:58:37;;;;;;;0.80;0.80;;;;;;;22.36;100.00;100134.91;5052059;28;20215;-68
2023/09/01 01:01:05;;;;;;;2.72;1.15;;;;;;;22.40;100.00;100140.03;5051715;28;20223;-69
2023/09/01 01:03:34;;;;;;;1.48;0.90;;;;;;;22.26;100.00;100136.13;5051317;28;20212;-68
2023/09/01 01:06:11;;;;;;;0.90;0.80;;;;;;;22.34;100.00;100140.22;5051456;28;20235;-69
2023/09/01 01:08:45;;;;;;;2.42;1.08;;;;;;;22.16;100.00;100128.47;5051333;28;20195;-68
2023/09/01 01:11:17;;;;;;;0.85;0.85;;;;;;;22.28;100.00;100136.91;5051516;28;20207;-68
2023/09/01 01:13:48;;;;;;;1.98;1.02;;;;;;;22.16;100.00;100136.38;5051641;28;20199;-69
2023/09/01 01:16:17;;;;;;;0.77;0.77;;;;;;;21.99;100.00;100108.78;5050987;28;20239;-68
2023/09/01 01:18:48;;;;;;;1.10;1.00;;;;;;;22.23;100.00;100148.50;5032646;28;20235;-71
2023/09/01 01:21:23;;;;;;;1.17;0.90;;;;;;;22.15;100.00;100137.28;5051189;28;20223;-68
2023/09/01 01:23:52;;;;;;;1.27;1.02;;;;;;;22.11;100.00;100153.31;5051590;28;20245;-68
2023/09/01 01:26:19;;;;;;;1.67;1.08;;;;;;;22.06;100.00;100144.66;5051449;28;20591;-69
2023/09/01 01:28:46;;;;;;;1.00;1.00;;;;;;;21.84;100.00;100122.41;5051471;28;20202;-69
2023/09/01 01:31:13;;;;;;;1.30;0.77;;;;;;;22.04;100.00;100152.63;5051664;28;20199;-69
2023/09/01 01:33:49;;;;;;;0.80;0.80;;;;;;;22.09;100.00;100150.69;5051524;28;20199;-69
2023/09/01 01:36:19;;;;;;;2.25;1.33;;;;;;;21.91;100.00;100139.81;5051692;28;20222;-69
2023/09/01 01:38:54;;;;;;;0.80;0.80;;;;;;;21.92;100.00;100153.00;5051435;28;20269;-68
2023/09/01 01:41:28;;;;;;;1.30;1.20;;;;;;;21.86;100.00;100152.28;5051099;28;20226;-69
2023/09/01 01:43:58;;;;;;;0.82;0.80;;;;;;;21.77;100.00;100158.69;5051342;28;20202;-69
2023/09/01 01:46:27;;;;;;;0.90;0.90;;;;;;;21.76;100.00;100149.03;5051215;28;20656;-68
2023/09/01 01:48:54;;;;;;;1.45;1.10;;;;;;;21.66;100.00;100147.56;5051335;28;20239;-69
2023/09/01 01:51:21;;;;;;;0.65;0.65;;;;;;;21.56;100.00;100128.50;5047983;28;20206;-68
2023/09/01 01:53:47;;;;;;;1.98;1.02;;;;;;;21.59;100.00;100143.38;5049936;28;20200;-68
2023/09/01 01:56:16;;;;;;;0.70;0.70;;;;;;;21.75;100.00;100157.88;5051477;28;20199;-69
2023/09/01 01:58:43;;;;;;;1.17;0.95;;;;;;;21.63;100.00;100153.81;5051252;28;20590;-69
2023/09/01 02:01:09;;;;;;;0.95;0.95;;;;;;;21.60;100.00;100156.56;5051001;28;20280;-69
2023/09/01 02:03:36;;;;;;;0.73;0.73;;;;;;;21.55;100.00;100147.00;5051097;28;20227;-68
2023/09/01 02:06:03;;;;;;;0.80;0.80;;;;;;;21.51;100.00;100148.88;5051059;28;20226;-69
2023/09/01 02:08:30;;;;;;;1.95;0.95;;;;;;;21.34;100.00;100115.97;5051047;28;20687;-68
2023/09/01 02:10:57;;;;;;;1.30;0.82;;;;;;;21.54;100.00;100155.88;5051402;28;20222;-69
2023/09/01 02:13:25;;;;;;;0.60;0.60;;;;;;;21.53;100.00;100146.22;5050800;28;20224;-69
2023/09/01 02:15:52;;;;;;;1.00;0.80;;;;;;;21.53;100.00;100144.44;5051034;28;20257;-69
2023/09/01 02:18:20;;;;;;;0.70;0.70;;;;;;;21.15;100.00;100094.53;5050794;28;20721;-69
2023/09/01 02:20:46;;;;;;;2.75;1.10;;;;;;;21.47;100.00;100152.53;5052372;28;20235;-69
2023/09/01 02:23:16;;;;;;;0.90;0.88;;;;;;;21.52;100.00;100153.25;5054204;28;20215;-68
2023/09/01 02:25:43;;;;;;;2.03;1.05;;;;;;;21.40;100.00;100153.63;5054833;28;20234;-69
2023/09/01 02:28:10;;;;;;;1.00;1.00;;;;;;;20.96;100.00;100077.47;5054685;28;20698;-69
2023/09/01 02:30:38;;;;;;;1.10;1.08;;;;;;;21.40;100.00;100147.47;5019634;28;20696;-69
2023/09/01 02:33:05;;;;;;;0.70;0.70;;;;;;;21.39;100.00;100156.28;5054508;28;20204;-68
2023/09/01 02:35:32;;;;;;;1.17;1.02;;;;;;;21.32;100.00;100146.81;5054206;28;20199;-69
2023/09/01 02:37:59;;;;;;;0.70;0.70;;;;;;;21.27;100.00;100133.75;5054664;28;20196;-68
2023/09/01 02:40:26;;;;;;;1.48;1.05;;;;;;;21.40;100.00;100147.47;5054253;28;20223;-68
2023/09/01 02:42:53;;;;;;;0.82;0.82;;;;;;;21.25;100.00;100123.25;5054461;28;20204;-68
2023/09/01 02:45:20;;;;;;;1.27;0.90;;;;;;;21.38;100.00;100144.00;5054254;28;20202;-68
2023/09/01 02:47:48;;;;;;;1.42;0.77;;;;;;;21.22;100.00;100133.03;5054003;28;20206;-68
2023/09/01 02:50:15;;;;;;;1.50;1.02;;;;;;;21.19;100.00;100138.34;5054195;28;20210;-69
2023/09/01 02:52:42;;;;;;;0.70;0.70;;;;;;;21.29;100.00;100144.28;5054154;28;20791;-68
2023/09/01 02:55:09;;;;;;;0.95;0.80;;;;;;;21.20;100.00;100124.28;5054063;28;20207;-68
2023/09/01 02:57:36;;;;;;;0.70;0.70;;;;;;;21.31;100.00;100153.00;5053986;28;20203;-69
2023/09/01 03:00:14;;;;;;;0.80;0.80;;;;;;;21.38;100.00;100151.91;5053728;28;20645;-68
2023/09/01 03:02:42;;;;;;;0.80;0.75;;;;;;;21.33;100.00;100148.56;5022061;28;20257;-69
2023/09/01 03:05:11;;;;;;;0.60;0.60;;;;;;;21.24;100.00;100132.06;5018768;28;20199;-69
2023/09/01 03:07:39;;;;;;;2.08;1.15;;;;;;;21.16;100.00;100127.91;5053906;28;20675;-69
2023/09/01 03:10:07;;;;;;;1.55;0.90;;;;;;;21.21;100.00;100137.44;5053507;28;20223;-69
2023/09/01 03:12:35;;;;;;;1.58;0.77;;;;;;;21.25;100.00;100146.13;5018576;28;20196;-68
2023/09/01 03:15:02;;;;;;;0.80;0.80;;;;;;;21.06;100.00;100132.53;5051189;28;20589;-68
2023/09/01 03:17:29;;;;;;;0.80;0.80;;;;;;;21.10;100.00;100131.59;5052754;28;20291;-68
2023/09/01 03:19:56;;;;;;;0.98;0.85;;;;;;;21.18;100.00;100152.47;5052370;28;20192;-68
2023/09/01 03:22:24;;;;;;;1.02;0.90;;;;;;;21.10;100.00;100141.22;5052829;28;20265;-69
2023/09/01 03:24:53;;;;;;;1.75;1.35;;;;;;;21.14;100.00;100151.69;5050121;28;20199;-68
2023/09/01 03:27:21;;;;;;;0.70;0.70;;;;;;;21.03;100.00;100153.72;5052899;28;20220;-69
2023/09/01 03:29:52;;;;;;;1.58;1.15;;;;;;;21.16;100.00;100149.88;5052620;28;20199;-69
2023/09/01 03:32:19;;;;;;;2.20;1.00;;;;;;;20.90;100.00;100133.88;5050683;28;20287;-72
2023/09/01 03:34:45;;;;;;;1.38;0.98;;;;;;;20.90;100.00;100136.50;5053171;28;20694;-71
2023/09/01 03:37:13;;;;;;;1.45;0.82;;;;;;;21.08;100.00;100156.25;5053262;28;20583;-70
2023/09/01 03:39:41;;;;;;;1.15;0.82;;;;;;;21.15;100.00;100156.03;5053136;28;20195;-70
2023/09/01 03:42:08;;;;;;;3.05;1.00;;;;;;;21.02;100.00;100162.53;5053264;28;20314;-69
2023/09/01 03:44:35;;;;;;;0.73;0.73;;;;;;;21.07;100.00;100162.41;5053029;28;20196;-70
2023/09/01 03:47:02;;;;;;;1.67;0.90;;;;;;;20.90;100.00;100139.13;5034379;28;20218;-69
2023/09/01 03:49:28;;;;;;;0.88;0.80;;;;;;;20.96;100.00;100167.97;5052880;28;20745;-68
2023/09/01 03:51:56;;;;;;;0.90;0.90;;;;;;;21.00;100.00;100169.63;5053182;28;20730;-68
2023/09/01 03:54:26;;;;;;;0.77;0.77;;;;;;;21.07;100.00;100176.47;5052553;28;20636;-69
2023/09/01 03:56:54;;;;;;;1.20;0.90;;;;;;;20.57;100.00;100089.91;5053151;28;20208;-68
2023/09/01 03:59:21;;;;;;;1.10;1.10;;;;;;;20.94;100.00;100168.91;5052998;28;20285;-68
2023/09/01 04:01:48;;;;;;;1.02;0.90;;;;;;;20.90;100.00;100167.25;5052994;28;20227;-68
2023/09/01 04:04:15;;;;;;;2.03;1.10;;;;;;;20.97;100.00;100174.09;5052467;28;20770;-68
2023/09/01 04:06:42;;;;;;;0.88;0.88;;;;;;;21.02;100.00;100178.34;5052530;28;20207;-69
2023/09/01 04:09:09;;;;;;;0.82;0.80;;;;;;;21.25;100.00;100176.00;5052089;28;20195;-69
2023/09/01 04:11:35;;;;;;;1.55;1.10;;;;;;;21.52;100.00;100179.66;5052653;28;20241;-69
2023/09/01 04:14:03;;;;;;;1.38;1.27;;;;;;;21.74;100.00;100183.41;5050597;28;20243;-70
2023/09/01 04:16:30;;;;;;;0.80;0.80;;;;;;;21.85;100.00;100191.03;5051999;28;20226;-69
2023/09/01 04:18:57;;;;;;;0.73;0.73;;;;;;;22.00;100.00;100192.38;5015952;28;20200;-69
2023/09/01 04:21:24;;;;;;;1.75;0.90;;;;;;;21.99;100.00;100194.16;5051100;28;20227;-70
2023/09/01 04:23:50;;;;;;;0.85;0.80;;;;;;;22.21;100.00;100200.53;5028258;28;20656;-69
2023/09/01 04:26:17;;;;;;;0.70;0.70;;;;;;;22.45;100.00;100190.09;5032622;28;20643;-68
2023/09/01 04:28:44;;;;;;;0.90;0.80;;;;;;;22.32;100.00;100151.75;5055429;28;20204;-69
2023/09/01 04:31:27;;;;;;;1.08;0.80;;;;;;;22.95;100.00;100194.63;5067950;28;20223;-69
2023/09/01 04:33:54;;;;;;;1.05;0.88;;;;;;;22.78;100.00;100183.75;5044522;28;20774;-69
2023/09/01 04:36:20;;;;;;;1.02;0.90;;;;;;;22.92;100.00;100197.38;5064930;28;20246;-70
2023/09/01 04:38:47;;;;;;;1.67;0.90;;;;;;;23.01;100.00;100191.75;5026927;28;20710;-70
2023/09/01 04:41:14;;;;;;;2.72;1.05;;;;;;;22.93;100.00;100167.38;5070266;28;20215;-70
2023/09/01 04:43:41;;;;;;;2.72;1.00;;;;;;;23.22;100.00;100200.78;5036213;28;20659;-69
2023/09/01 04:46:08;;;;;;;1.35;1.25;;;;;;;23.34;100.00;100188.88;5049734;28;20199;-69
2023/09/01 04:48:37;;;;;;;4.22;1.27;;;;;;;23.54;100.00;100212.91;5070127;28;20264;-70
2023/09/01 04:51:03;;;;;;;1.05;0.90;;;;;;;23.51;100.00;100205.03;5057865;28;20203;-69
2023/09/01 04:53:31;;;;;;;1.08;1.08;;;;;;;23.69;100.00;100212.31;5072036;28;20653;-75
2023/09/01 04:55:57;;;;;;;1.52;1.10;;;;;;;23.56;100.00;100193.38;5067304;28;20209;-75
2023/09/01 04:58:24;;;;;;;0.82;0.77;;;;;;;23.41;100.00;100196.56;5068561;28;20244;-74
2023/09/01 05:00:51;;;;;;;0.60;0.60;;;;;;;23.58;100.00;100219.81;5071759;28;20229;-71
2023/09/01 05:03:18;;;;;;;4.38;1.60;;;;;;;23.20;100.00;100150.53;5071492;28;20320;-71
2023/09/01 05:05:47;;;;;;;1.98;1.55;;;;;;;23.97;100.00;100223.63;5064886;28;20569;-71
2023/09/01 05:08:13;;;;;;;0.85;0.80;;;;;;;24.24;98.06;100227.06;5063749;28;20199;-72
2023/09/01 05:10:40;;;;;;;0.70;0.70;;;;;;;24.67;94.32;100227.09;5055089;28;20210;-72
2023/09/01 05:13:07;;;;;;;2.05;0.90;;;;;;;24.92;92.27;100231.41;5036491;28;20195;-73
2023/09/01 05:15:34;;;;;;;0.70;0.70;;;;;;;24.88;91.02;100235.13;5034570;28;20200;-72
2023/09/01 05:18:02;;;;;;;1.05;0.80;;;;;;;24.84;91.01;100223.78;5032147;28;20226;-73
2023/09/01 05:20:28;;;;;;;0.90;0.90;;;;;;;24.99;90.80;100232.91;5044431;28;20216;-72
2023/09/01 05:22:56;;;;;;;0.90;0.90;;;;;;;25.22;88.68;100245.22;5020024;28;20206;-72
2023/09/01 05:25:23;;;;;;;2.38;0.93;;;;;;;25.35;88.36;100246.41;5051471;28;20573;-71
2023/09/01 05:27:50;;;;;;;0.63;0.63;;;;;;;25.12;88.23;100245.56;5051532;28;20277;-72
2023/09/01 05:30:17;;;;;;;1.65;0.93;;;;;;;24.59;90.24;100204.44;5050714;28;20211;-72
2023/09/01 05:32:44;;;;;;;3.60;1.17;;;;;;;24.40;93.09;100238.78;5051259;28;20200;-71
2023/09/01 05:35:11;;;;;;;0.80;0.80;;;;;;;24.10;95.07;100239.94;5051433;28;20191;-69
2023/09/01 05:37:37;;;;;;;2.08;1.00;;;;;;;24.04;97.70;100229.56;5055617;28;20191;-73
2023/09/01 05:40:07;;;;;;;3.53;0.98;;;;;;;23.89;99.14;100257.50;5071186;28;20207;-73
2023/09/01 05:42:34;;;;;;;1.55;1.45;;;;;;;23.84;100.00;100264.72;5070800;28;20306;-71
2023/09/01 05:45:01;;;;;;;2.28;1.15;;;;;;;23.64;100.00;100265.47;5070837;28;20671;-71
2023/09/01 05:47:27;;;;;;;1.10;0.80;;;;;;;22.93;100.00;100151.50;5070953;28;20705;-73
2023/09/01 05:49:54;;;;;;;0.70;0.70;;;;;;;23.48;100.00;100261.59;5071021;28;20209;-72
2023/09/01 05:52:21;;;;;;;1.13;1.13;;;;;;;23.83;100.00;100270.94;5057049;28;20243;-72
2023/09/01 05:54:48;;;;;;;0.90;0.90;;;;;;;23.71;100.00;100252.88;5037158;28;20203;-68
2023/09/01 05:57:17;;;;;;;3.08;1.15;;;;;;;23.48;100.00;100248.38;5054583;28;20676;-69
2023/09/01 05:59:44;;;;;;;2.72;1.02;;;;;;;22.96;100.00;100200.78;5059325;28;20692;-68
2023/09/01 06:02:10;;;;;;;0.90;0.90;;;;;;;23.54;100.00;100273.78;5074984;28;20614;-69
2023/09/01 06:04:37;;;;;;;2.30;1.15;;;;;;;23.54;100.00;100276.44;5074809;28;20228;-68
2023/09/01 06:07:05;;;;;;;1.60;0.70;;;;;;;23.51;100.00;100281.81;5074593;28;20198;-68
2023/09/01 06:09:32;;;;;;;2.83;1.67;;;;;;;23.69;100.00;100282.03;5060405;28;20208;-68
2023/09/01 06:11:59;;;;;;;2.83;1.23;;;;;;;23.53;100.00;100270.25;5074455;28;20205;-71
2023/09/01 06:14:27;;;;;;;2.65;1.10;;;;;;;23.75;100.00;100274.81;5074748;28;20217;-71
2023/09/01 06:16:54;;;;;;;1.10;0.80;;;;;;;23.89;100.00;100299.88;5046561;28;20682;-71
2023/09/01 06:19:21;;;;;;;2.63;0.98;;;;;;;24.02;100.00;100300.28;5074477;28;20681;-71
2023/09/01 06:21:48;;;;;;;2.20;1.30;;;;;;;23.99;98.75;100305.69;5060060;28;20748;-72
2023/09/01 06:24:14;;;;;;;1.40;0.80;;;;;;;23.78;99.43;100272.91;5074187;28;20667;-71
2023/09/01 06:26:41;;;;;;;0.60;0.60;;;;;;;24.03;100.00;100307.31;5074226;28;20256;-71
2023/09/01 06:29:08;;;;;;;0.70;0.70;;;;;;;24.01;99.90;100291.47;5074445;28;20203;-71
2023/09/01 06:31:36;;;;;;;1.23;1.00;;;;;;;24.04;100.00;100320.50;5074726;28;20233;-72
2023/09/01 06:34:04;;;;;;;0.70;0.70;;;;;;;24.02;100.00;100325.00;5074521;28;20673;-72
2023/09/01 06:36:30;;;;;;;0.60;0.60;;;;;;;23.95;100.00;100315.53;5074295;28;20256;-71
2023/09/01 06:38:57;;;;;;;1.40;0.98;;;;;;;24.07;100.00;100323.06;5074453;28;20199;-72
2023/09/01 06:41:24;;;;;;;0.80;0.80;;;;;;;23.91;97.82;100305.97;5074006;28;20230;-72
2023/09/01 06:43:51;;;;;;;1.85;1.17;;;;;;;23.90;99.21;100322.78;5074419;28;20203;-71
2023/09/01 06:46:17;;;;;;;0.70;0.70;;;;;;;24.16;96.33;100322.75;5074340;28;20199;-72
2023/09/01 06:48:48;;;;;;;1.30;0.82;;;;;;;24.18;96.76;100312.97;5074081;28;20674;-72
2023/09/01 06:51:15;;;;;;;2.17;0.90;;;;;;;24.49;94.11;100336.53;5074074;28;20213;-72
2023/09/01 06:53:42;;;;;;;1.00;0.90;;;;;;;24.48;93.82;100336.56;5074026;28;20733;-72
2023/09/01 06:56:08;;;;;;;0.70;0.70;;;;;;;24.61;94.31;100337.84;5038951;28;20686;-72
2023/09/01 06:58:35;;;;;;;1.23;1.10;;;;;;;24.69;91.27;100317.19;5038871;28;20195;-71
2023/09/01 07:01:07;;;;;;;0.80;0.80;;;;;;;24.96;89.16;100345.34;5073783;28;20215;-71
2023/09/01 07:03:34;;;;;;;1.65;0.82;;;;;;;24.86;88.91;100349.28;5073970;28;20248;-71
2023/09/01 07:06:02;;;;;;;0.70;0.70;;;;;;;25.03;86.62;100343.28;5073873;28;20199;-71
2023/09/01 07:08:29;;;;;;;2.53;0.93;;;;;;;25.01;85.65;100343.34;5072664;28;20206;-71
2023/09/01 07:11:01;;;;;;;1.10;0.80;;;;;;;25.11;84.19;100349.16;5073853;28;20689;-71
2023/09/01 07:13:27;;;;;;;1.80;1.10;;;;;;;24.82;85.20;100346.75;5073668;28;20248;-72
2023/09/01 07:15:54;;;;;;;0.75;0.70;;;;;;;24.68;89.15;100350.78;5073683;28;20616;-72
2023/09/01 07:18:22;;;;;;;1.00;0.90;;;;;;;24.72;86.86;100340.97;5073444;28;20694;-72
2023/09/01 07:20:50;;;;;;;0.60;0.60;;;;;;;25.01;86.23;100343.34;5073610;28;20218;-72
2023/09/01 07:23:19;;;;;;;0.95;0.90;;;;;;;25.23;82.93;100353.97;5038288;28;20242;-72
2023/09/01 07:25:46;;;;;;;0.80;0.80;;;;;;;25.14;82.92;100360.53;5073441;28;20206;-72
2023/09/01 07:28:12;;;;;;;0.60;0.60;;;;;;;25.25;84.37;100356.56;5073447;28;20674;-69
2023/09/01 07:30:39;;;;;;;1.42;0.90;;;;;;;25.34;83.79;100361.47;5073507;28;20199;-68
2023/09/01 07:33:06;;;;;;;0.80;0.80;;;;;;;25.38;84.26;100357.78;5073315;28;20198;-69
2023/09/01 07:35:33;;;;;;;2.13;1.00;;;;;;;25.36;83.22;100360.50;5073151;28;20203;-67
2023/09/01 07:38:00;;;;;;;4.65;1.20;;;;;;;25.31;83.51;100366.91;5070446;28;20210;-67
2023/09/01 07:40:29;;;;;;;0.65;0.65;;;;;;;25.37;82.67;100334.81;5037374;28;20211;-68
2023/09/01 07:42:56;;;;;;;1.00;0.85;;;;;;;25.44;83.37;100371.66;5054669;28;20227;-68
2023/09/01 07:45:22;;;;;;;0.77;0.77;;;;;;;25.56;82.06;100370.34;5072726;28;20202;-68
2023/09/01 07:47:49;;;;;;;0.73;0.73;;;;;;;25.76;81.41;100364.16;5072744;28;20211;-69
2023/09/01 07:50:16;;;;;;;1.58;1.10;;;;;;;25.68;78.33;100367.16;5072685;28;20207;-67
2023/09/01 07:52:43;;;;;;;0.80;0.80;;;;;;;25.65;76.71;100361.97;5073073;28;20655;-67
2023/09/01 07:55:10;;;;;;;0.85;0.70;;;;;;;25.76;76.59;100369.47;5073087;28;20577;-67
2023/09/01 07:57:38;;;;;;;0.70;0.70;;;;;;;25.95;74.72;100370.41;5072986;28;20191;-67
2023/09/01 08:00:07;;;;;;;1.55;0.90;;;;;;;26.06;73.56;100366.38;5072722;28;20678;-67
2023/09/01 08:02:34;;;;;;;0.70;0.70;;;;;;;26.05;72.84;100356.66;5054554;28;20227;-67
2023/09/01 08:05:03;;;;;;;0.60;0.60;;;;;;;26.05;73.04;100356.66;5072816;28;20230;-67
2023/09/01 08:07:30;;;;;;;0.95;0.75;;;;;;;26.16;72.79;100358.84;5072878;28;20648;-67
2023/09/01 08:09:57;;;;;;;4.50;0.93;;;;;;;26.28;70.95;100362.78;5072550;28;20670;-67
2023/09/01 08:12:24;;;;;;;1.00;1.00;;;;;;;26.22;71.18;100363.91;5072426;28;20198;-67
2023/09/01 08:14:52;;;;;;;1.10;0.90;;;;;;;26.37;72.29;100363.22;5072463;28;20199;-66
2023/09/01 08:17:19;;;;;;;1.85;0.88;;;;;;;26.38;73.72;100364.97;5072391;28;20575;-68
2023/09/01 08:19:47;;;;;;;0.70;0.70;;;;;;;26.49;74.58;100359.16;5072101;28;20712;-68
2023/09/01 08:22:14;;;;;;;0.90;0.90;;;;;;;26.27;73.08;100299.91;5072291;28;20222;-67
2023/09/01 08:24:41;;;;;;;0.88;0.88;;;;;;;26.55;71.58;100370.38;5072234;28;20670;-67
2023/09/01 08:27:08;;;;;;;0.80;0.80;;;;;;;26.62;70.30;100379.78;5072399;28;20199;-67
2023/09/01 08:29:35;;;;;;;0.70;0.70;;;;;;;26.78;71.02;100373.78;5072224;28;20571;-69
2023/09/01 08:32:03;;;;;;;0.88;0.88;;;;;;;26.96;68.82;100381.78;5037135;28;20199;-68
2023/09/01 08:34:31;;;;;;;1.23;1.10;;;;;;;26.89;68.79;100360.84;5072097;28;20213;-67
2023/09/01 08:36:58;;;;;;;1.27;1.20;;;;;;;27.07;67.27;100382.13;5053769;28;20198;-68
2023/09/01 08:39:25;;;;;;;1.13;0.80;;;;;;;27.07;60.75;100366.16;5072018;28;20202;-67
2023/09/01 08:41:54;;;;;;;0.70;0.70;;;;;;;27.18;62.98;100373.63;5071966;28;20231;-67
2023/09/01 08:44:23;;;;;;;2.38;0.95;;;;;;;27.16;62.87;100379.94;5071863;28;20694;-67
2023/09/01 08:46:52;;;;;;;3.65;1.52;;;;;;;27.09;61.88;100368.75;5072097;28;20198;-67
2023/09/01 08:49:21;;;;;;;0.80;0.80;;;;;;;27.14;61.16;100379.19;5071943;28;20198;-68
2023/09/01 08:51:48;;;;;;;0.70;0.70;;;;;;;27.20;63.36;100377.06;5071935;28;20226;-68
2023/09/01 08:54:18;;;;;;;1.65;0.85;;;;;;;27.12;63.84;100373.91;5071605;28;20206;-68
2023/09/01 08:56:45;;;;;;;1.20;1.10;;;;;;;27.07;65.50;100367.97;5058624;28;20678;-68
2023/09/01 08:59:13;;;;;;;1.67;0.90;;;;;;;27.25;66.45;100358.22;5071275;28;20211;-68
2023/09/01 09:01:40;;;;;;;0.50;0.50;;;;;;;27.56;62.54;100371.75;5059563;28;20230;-68
2023/09/01 09:04:07;;;;;;;0.95;0.70;;;;;;;27.56;60.69;100361.97;5034822;28;20618;-70
2023/09/01 09:06:37;;;;;;;4.03;1.25;;;;;;;27.50;57.74;100369.41;5039054;28;20198;-71
2023/09/01 09:09:05;;;;;;;1.45;0.90;;;;;;;27.39;57.16;100374.38;5071435;28;20647;-71
2023/09/01 09:11:32;;;;;;;1.85;1.10;;;;;;;27.26;57.87;100368.78;5069970;28;20211;-71
